createdAt,value
2023-02-12T00:02:26.642Z,72.00
2023-02-12T00:05:16.626Z,71.70
2023-02-12T00:08:03.851Z,72.80
2023-02-12T00:10:51.078Z,64.22
2023-02-12T00:13:38.547Z,65.72
2023-02-12T00:16:29.347Z,68.00
2023-02-12T00:19:19.004Z,64.13
2023-02-12T00:22:08.649Z,63.75
2023-02-12T00:24:56.491Z,68.82
2023-02-12T00:27:43.610Z,65.13
2023-02-12T00:30:30.724Z,64.97
2023-02-12T00:33:17.971Z,62.00
2023-02-12T00:36:06.486Z,66.47
2023-02-12T00:38:57.412Z,64.30
2023-02-12T00:41:44.533Z,64.90
2023-02-12T00:44:34.499Z,73.40
2023-02-12T00:47:21.687Z,64.50
2023-02-12T00:50:09.279Z,71.18
2023-02-12T00:52:56.414Z,64.43
2023-02-12T00:55:43.738Z,64.45
2023-02-12T00:58:31.001Z,65.80
2023-02-12T01:01:18.515Z,68.68
2023-02-12T01:04:05.790Z,67.40
2023-02-12T01:06:52.958Z,62.78
2023-02-12T01:09:40.201Z,65.97
2023-02-12T01:12:27.357Z,64.07
2023-02-12T01:15:15.460Z,63.20
2023-02-12T01:18:02.794Z,65.60
2023-02-12T01:20:49.923Z,65.65
2023-02-12T01:23:37.110Z,73.10
2023-02-12T01:26:28.183Z,63.63
2023-02-12T01:29:15.402Z,67.90
2023-02-12T01:32:02.800Z,67.88
2023-02-12T01:34:50.208Z,66.88
2023-02-12T01:37:38.380Z,63.97
2023-02-12T01:40:25.626Z,70.25
2023-02-12T01:43:13.250Z,77.82
2023-02-12T01:46:00.935Z,71.38
2023-02-12T01:48:50.584Z,61.25
2023-02-12T01:51:38.051Z,68.22
2023-02-12T01:54:26.932Z,68.95
2023-02-12T01:57:16.404Z,76.57
2023-02-12T02:00:07.869Z,80.45
2023-02-12T02:02:58.585Z,78.00
2023-02-12T02:06:01.340Z,74.00
2023-02-12T02:08:48.992Z,63.00
2023-02-12T02:11:54.595Z,67.40
2023-02-12T02:14:42.256Z,65.00
2023-02-12T02:17:41.058Z,64.60
2023-02-12T02:21:04.688Z,62.70
2023-02-12T02:24:12.099Z,66.63
2023-02-12T02:27:17.801Z,57.63
2023-02-12T02:30:11.187Z,66.13
2023-02-12T02:33:13.758Z,66.82
2023-02-12T02:36:12.877Z,70.45
2023-02-12T02:39:21.231Z,78.68
2023-02-12T02:42:23.054Z,71.40
2023-02-12T02:45:18.550Z,71.93
2023-02-12T02:48:10.190Z,74.60
2023-02-12T02:51:07.729Z,65.97
2023-02-12T02:54:15.943Z,72.15
2023-02-12T02:57:13.963Z,65.53
2023-02-12T03:00:15.691Z,70.25
2023-02-12T03:03:10.335Z,69.70
2023-02-12T03:06:07.719Z,68.78
2023-02-12T03:09:02.148Z,70.93
2023-02-12T03:11:53.373Z,63.60
2023-02-12T03:14:46.551Z,77.57
2023-02-12T03:17:41.480Z,79.43
2023-02-12T03:20:36.168Z,78.13
2023-02-12T03:23:27.837Z,86.03
2023-02-12T03:26:23.580Z,59.08
2023-02-12T03:29:11.334Z,84.18
2023-02-12T03:32:07.080Z,80.55
2023-02-12T03:34:58.270Z,89.47
2023-02-12T03:38:15.304Z,83.47
2023-02-12T03:41:20.783Z,79.90
2023-02-12T03:44:13.988Z,83.28
2023-02-12T03:47:28.233Z,88.93
2023-02-12T03:50:27.293Z,88.18
2023-02-12T03:53:17.595Z,80.22
2023-02-12T03:56:24.463Z,81.72
2023-02-12T03:59:14.806Z,85.75
2023-02-12T04:02:02.083Z,89.05
2023-02-12T04:04:49.450Z,87.90
2023-02-12T04:07:37.702Z,91.80
2023-02-12T04:10:42.996Z,89.13
2023-02-12T04:13:50.991Z,80.28
2023-02-12T04:16:45.666Z,94.82
2023-02-12T04:20:10.769Z,77.03
2023-02-12T04:23:03.720Z,81.97
2023-02-12T04:25:59.266Z,89.00
2023-02-12T04:29:11.752Z,82.35
2023-02-12T04:32:07.200Z,92.45
2023-02-12T04:35:06.365Z,88.85
2023-02-12T04:38:05.519Z,88.38
2023-02-12T04:40:53.414Z,82.95
2023-02-12T04:43:40.520Z,80.18
2023-02-12T04:46:27.689Z,83.78
2023-02-12T04:49:17.467Z,87.32
2023-02-12T04:52:04.786Z,83.30
2023-02-12T04:54:51.930Z,90.38
2023-02-12T04:57:41.808Z,91.30
2023-02-12T05:00:28.966Z,95.50
2023-02-12T05:03:16.168Z,105.18
2023-02-12T05:06:09.958Z,105.00
2023-02-12T05:08:57.943Z,102.75
2023-02-12T05:11:45.839Z,102.88
2023-02-12T05:14:35.095Z,101.75
2023-02-12T05:17:25.798Z,104.13
2023-02-12T05:20:14.039Z,108.57
2023-02-12T05:23:04.319Z,106.13
2023-02-12T05:25:51.531Z,116.60
2023-02-12T05:28:38.970Z,119.80
2023-02-12T05:31:28.559Z,132.70
2023-02-12T05:34:15.955Z,152.00
2023-02-12T05:37:03.576Z,144.40
2023-02-12T05:39:53.855Z,151.18
2023-02-12T05:42:41.057Z,169.35
2023-02-12T05:45:29.362Z,161.32
2023-02-12T05:48:18.868Z,180.52
2023-02-12T05:51:12.183Z,156.70
2023-02-12T05:54:03.692Z,172.10
2023-02-12T05:56:50.914Z,165.93
2023-02-12T05:59:38.201Z,169.50
2023-02-12T06:02:25.452Z,166.52
2023-02-12T06:05:12.625Z,169.50
2023-02-12T06:07:59.835Z,166.50
2023-02-12T06:10:46.994Z,165.02
2023-02-12T06:13:35.026Z,165.27
2023-02-12T06:16:27.406Z,185.57
2023-02-12T06:19:14.999Z,187.80
2023-02-12T06:22:04.296Z,190.32
2023-02-12T06:24:53.582Z,150.82
2023-02-12T06:27:40.866Z,137.13
2023-02-12T06:30:28.029Z,140.30
2023-02-12T06:33:15.314Z,149.82
2023-02-12T06:36:04.689Z,151.45
2023-02-12T06:38:52.653Z,170.85
2023-02-12T06:41:39.967Z,167.05
2023-02-12T06:44:27.195Z,177.32
2023-02-12T06:47:14.805Z,186.00
2023-02-12T06:50:04.677Z,188.38
2023-02-12T06:52:51.915Z,191.07
2023-02-12T06:55:39.159Z,208.45
2023-02-12T06:58:26.298Z,204.70
2023-02-12T07:01:19.225Z,233.15
2023-02-12T07:04:06.410Z,243.73
2023-02-12T07:06:53.610Z,230.93
2023-02-12T07:09:40.865Z,235.02
2023-02-12T07:12:36.981Z,239.48
2023-02-12T07:15:24.124Z,216.80
2023-02-12T07:18:11.219Z,227.10
2023-02-12T07:21:03.148Z,237.00
2023-02-12T07:23:51.982Z,247.70
2023-02-12T07:26:40.094Z,249.00
2023-02-12T07:29:27.260Z,236.90
2023-02-12T07:32:14.540Z,192.55
2023-02-12T07:35:02.132Z,184.68
2023-02-12T07:37:49.480Z,187.63
2023-02-12T07:40:38.930Z,196.65
2023-02-12T07:43:26.056Z,193.88
2023-02-12T07:46:23.861Z,216.27
2023-02-12T07:49:15.756Z,227.25
2023-02-12T07:52:02.924Z,222.32
2023-02-12T07:54:50.214Z,200.77
2023-02-12T07:57:37.347Z,193.98
2023-02-12T08:00:24.650Z,187.20
2023-02-12T08:03:11.760Z,171.05
2023-02-12T08:05:58.952Z,160.18
2023-02-12T08:08:47.556Z,159.05
2023-02-12T08:11:38.719Z,139.95
2023-02-12T08:14:33.132Z,131.55
2023-02-12T08:17:23.607Z,120.22
2023-02-12T08:20:14.145Z,133.18
2023-02-12T08:23:24.616Z,116.43
2023-02-12T08:26:38.902Z,118.32
2023-02-12T08:29:32.180Z,119.72
2023-02-12T08:32:19.364Z,125.93
2023-02-12T08:35:07.312Z,131.60
2023-02-12T08:37:56.840Z,109.55
2023-02-12T08:40:44.058Z,109.00
2023-02-12T08:43:34.071Z,102.20
2023-02-12T08:46:24.047Z,162.98
2023-02-12T08:49:20.746Z,117.80
2023-02-12T08:52:08.093Z,104.13
2023-02-12T08:54:57.888Z,95.35
2023-02-12T08:57:45.319Z,100.13
2023-02-12T09:00:32.744Z,94.80
2023-02-12T09:03:20.279Z,91.53
2023-02-12T09:06:13.064Z,94.70
2023-02-12T09:09:00.461Z,89.05
2023-02-12T09:11:49.442Z,89.13
2023-02-12T09:14:39.079Z,83.75
2023-02-12T09:17:27.543Z,78.55
2023-02-12T09:20:14.982Z,78.82
2023-02-12T09:23:02.396Z,77.65
2023-02-12T09:25:51.751Z,68.40
2023-02-12T09:28:39.998Z,69.80
2023-02-12T09:31:36.381Z,66.72
2023-02-12T09:34:23.831Z,71.15
2023-02-12T09:37:11.174Z,73.22
2023-02-12T09:40:00.558Z,67.80
2023-02-12T09:43:09.082Z,64.75
2023-02-12T09:46:13.815Z,56.22
2023-02-12T09:49:12.444Z,55.70
2023-02-12T09:52:03.660Z,53.30
2023-02-12T09:54:51.367Z,58.17
2023-02-12T09:57:38.868Z,53.38
2023-02-12T10:00:31.806Z,53.70
2023-02-12T10:03:19.281Z,45.45
2023-02-12T10:06:13.544Z,49.03
2023-02-12T10:09:06.820Z,46.50
2023-02-12T10:11:58.361Z,37.20
2023-02-12T10:14:59.486Z,36.67
2023-02-12T10:18:13.152Z,38.03
2023-02-12T10:21:08.950Z,29.98
2023-02-12T10:24:27.445Z,34.33
2023-02-12T10:27:31.093Z,25.00
2023-02-12T10:30:43.826Z,18.75
2023-02-12T10:33:45.429Z,23.58
2023-02-12T10:36:50.193Z,20.80
2023-02-12T10:40:06.280Z,19.15
2023-02-12T10:42:54.377Z,20.63
2023-02-12T10:45:43.591Z,18.73
2023-02-12T10:48:33.005Z,21.60
2023-02-12T10:51:41.102Z,21.20
2023-02-12T10:54:38.837Z,20.40
2023-02-12T10:57:38.238Z,17.67
2023-02-12T11:00:40.354Z,14.30
2023-02-12T11:03:44.120Z,13.55
2023-02-12T11:06:34.873Z,12.65
2023-02-12T11:09:48.192Z,14.05
2023-02-12T11:12:41.054Z,13.88
2023-02-12T11:15:36.632Z,13.00
2023-02-12T11:18:26.363Z,20.70
2023-02-12T11:21:36.091Z,16.52
2023-02-12T11:24:31.662Z,15.90
2023-02-12T11:27:25.110Z,20.70
2023-02-12T11:30:20.446Z,18.48
2023-02-12T11:33:32.197Z,14.85
2023-02-12T11:36:26.226Z,15.02
2023-02-12T11:39:30.306Z,15.63
2023-02-12T11:42:24.561Z,16.67
2023-02-12T11:45:28.048Z,16.48
2023-02-12T11:48:22.940Z,18.27
2023-02-12T11:51:24.536Z,17.38
2023-02-12T11:54:24.137Z,17.00
2023-02-12T11:57:47.236Z,20.00
2023-02-12T12:00:47.346Z,22.42
2023-02-12T12:03:49.205Z,24.88
2023-02-12T12:06:49.624Z,20.95
2023-02-12T12:10:07.673Z,23.73
2023-02-12T12:13:07.597Z,24.67
2023-02-12T12:16:25.702Z,25.83
2023-02-12T12:19:56.958Z,22.75
2023-02-12T12:23:06.284Z,22.95
2023-02-12T12:25:59.166Z,24.10
2023-02-12T12:29:06.767Z,23.33
2023-02-12T12:32:03.482Z,21.50
2023-02-12T12:34:50.805Z,22.17
2023-02-12T12:38:12.780Z,22.73
2023-02-12T12:41:27.215Z,18.10
2023-02-12T12:44:17.679Z,16.23
2023-02-12T12:47:22.151Z,14.77
2023-02-12T12:50:32.043Z,17.27
2023-02-12T12:53:25.618Z,14.75
2023-02-12T12:56:40.304Z,18.05
2023-02-12T12:59:42.449Z,18.92
2023-02-12T13:02:50.595Z,18.52
2023-02-12T13:05:59.618Z,19.30
2023-02-12T13:09:11.165Z,15.63
2023-02-12T13:12:23.031Z,19.88
2023-02-12T13:15:25.594Z,14.90
2023-02-12T13:18:34.433Z,17.65
2023-02-12T13:21:45.919Z,15.20
2023-02-12T13:24:46.678Z,17.13
2023-02-12T13:27:40.749Z,12.95
2023-02-12T13:30:46.657Z,14.60
2023-02-12T13:33:42.289Z,14.88
2023-02-12T13:36:31.623Z,13.57
2023-02-12T13:39:24.862Z,19.05
2023-02-12T13:42:21.300Z,18.90
2023-02-12T13:45:52.495Z,14.15
2023-02-12T13:49:08.869Z,12.88
2023-02-12T13:52:01.590Z,13.68
2023-02-12T13:57:43.403Z,15.20
2023-02-12T14:00:52.559Z,10.00
2023-02-12T14:03:40.765Z,14.32
2023-02-12T14:06:35.317Z,11.40
2023-02-12T14:09:29.958Z,8.10
2023-02-12T14:12:26.434Z,7.93
2023-02-12T14:15:39.167Z,9.25
2023-02-12T14:18:33.117Z,8.85
2023-02-12T14:21:29.738Z,19.42
2023-02-12T14:24:35.962Z,7.53
2023-02-12T14:27:52.519Z,7.47
2023-02-12T14:30:40.652Z,11.30
2023-02-12T14:33:28.534Z,6.15
2023-02-12T14:36:40.350Z,6.47
2023-02-12T14:39:29.928Z,7.38
2023-02-12T14:42:17.257Z,7.28
2023-02-12T14:45:24.625Z,5.85
2023-02-12T14:48:49.672Z,5.80
2023-02-12T14:51:51.846Z,5.05
2023-02-12T14:54:42.109Z,8.18
2023-02-12T14:57:43.588Z,6.88
2023-02-12T15:00:40.476Z,5.90
2023-02-12T15:03:49.521Z,5.00
2023-02-12T15:06:44.679Z,4.72
2023-02-12T15:09:50.698Z,4.20
2023-02-12T15:13:09.211Z,5.05
2023-02-12T15:16:01.182Z,8.38
2023-02-12T15:19:25.627Z,7.70
2023-02-12T15:22:40.319Z,6.40
2023-02-12T15:25:30.471Z,5.05
2023-02-12T15:28:25.925Z,4.63
2023-02-12T15:31:27.501Z,4.50
2023-02-12T15:34:22.052Z,6.95
2023-02-12T15:37:10.124Z,5.03
2023-02-12T15:40:01.646Z,7.13
2023-02-12T15:43:01.304Z,5.80
2023-02-12T15:45:53.058Z,5.10
2023-02-12T15:48:43.317Z,6.10
2023-02-12T15:51:42.012Z,6.97
2023-02-12T15:54:29.950Z,6.63
2023-02-12T15:57:27.120Z,5.10
2023-02-12T16:00:55.162Z,6.32
2023-02-12T16:03:54.270Z,5.35
2023-02-12T16:06:41.865Z,4.93
2023-02-12T16:09:32.379Z,4.95
2023-02-12T16:12:23.431Z,5.32
2023-02-12T16:15:28.659Z,4.25
2023-02-12T16:18:26.628Z,5.22
2023-02-12T16:21:24.519Z,4.85
2023-02-12T16:24:42.277Z,7.45
2023-02-12T16:27:35.922Z,6.80
2023-02-12T16:30:30.915Z,6.45
2023-02-12T16:34:00.869Z,7.60
2023-02-12T16:36:52.623Z,9.50
2023-02-12T16:40:01.547Z,8.70
2023-02-12T16:42:51.941Z,10.98
2023-02-12T16:45:41.511Z,7.70
2023-02-12T16:48:32.348Z,8.30
2023-02-12T16:51:22.846Z,22.05
2023-02-12T16:54:34.657Z,19.33
2023-02-12T16:57:22.150Z,14.57
2023-02-12T17:00:12.527Z,12.95
2023-02-12T17:02:59.794Z,25.30
2023-02-12T17:05:47.364Z,14.95
2023-02-12T17:08:37.296Z,12.38
2023-02-12T17:11:27.735Z,12.45
2023-02-12T17:14:18.346Z,14.07
2023-02-12T17:17:05.818Z,13.13
2023-02-12T17:19:53.456Z,12.55
2023-02-12T17:22:51.520Z,13.13
2023-02-12T17:25:43.795Z,15.18
2023-02-12T17:28:32.750Z,15.63
2023-02-12T17:31:20.922Z,17.27
2023-02-12T17:34:08.429Z,15.40
2023-02-12T17:37:00.952Z,13.35
2023-02-12T17:39:48.267Z,17.73
2023-02-12T17:42:35.582Z,20.42
2023-02-12T17:45:23.099Z,17.15
2023-02-12T17:48:12.588Z,20.60
2023-02-12T17:51:01.925Z,24.45
2023-02-12T17:53:53.067Z,24.58
2023-02-12T17:56:40.543Z,20.77
2023-02-12T17:59:37.783Z,22.23
2023-02-12T18:02:27.846Z,21.48
2023-02-12T18:05:16.759Z,19.55
2023-02-12T18:08:04.267Z,21.50
2023-02-12T18:10:51.770Z,23.75
2023-02-12T18:13:44.113Z,20.83
2023-02-12T18:16:37.572Z,23.88
2023-02-12T18:19:30.261Z,23.65
2023-02-12T18:25:09.024Z,22.42
2023-02-12T18:27:56.664Z,28.60
2023-02-12T18:30:44.676Z,23.80
2023-02-12T18:33:33.091Z,23.27
2023-02-12T18:36:21.811Z,23.20
2023-02-12T18:39:09.308Z,26.90
2023-02-12T18:41:56.752Z,25.50
2023-02-12T18:44:44.236Z,26.83
2023-02-12T18:47:32.138Z,27.38
2023-02-12T18:50:19.778Z,26.02
2023-02-12T18:53:07.661Z,29.23
2023-02-12T18:55:55.073Z,29.77
2023-02-12T18:58:42.486Z,31.48
2023-02-12T19:01:29.969Z,33.58
2023-02-12T19:04:23.548Z,28.90
2023-02-12T19:07:11.260Z,32.83
2023-02-12T19:09:58.799Z,33.92
2023-02-12T19:12:46.265Z,29.08
2023-02-12T19:15:33.909Z,38.70
2023-02-12T19:18:21.424Z,35.33
2023-02-12T19:21:12.029Z,33.60
2023-02-12T19:24:01.461Z,34.95
2023-02-12T19:26:52.587Z,32.33
2023-02-12T19:29:41.600Z,32.92
2023-02-12T19:32:33.694Z,31.63
2023-02-12T19:35:21.386Z,33.92
2023-02-12T19:38:08.874Z,36.75
2023-02-12T19:41:17.550Z,33.72
2023-02-12T19:44:23.421Z,36.17
2023-02-12T19:47:27.291Z,44.95
2023-02-12T19:50:22.355Z,38.92
2023-02-12T19:53:15.999Z,41.47
2023-02-12T19:56:10.574Z,40.42
2023-02-12T19:59:04.835Z,41.00
2023-02-12T20:01:58.732Z,38.88
2023-02-12T20:04:47.667Z,45.00
2023-02-12T20:07:40.038Z,41.45
2023-02-12T20:10:35.658Z,44.55
2023-02-12T20:13:24.676Z,46.22
2023-02-12T20:16:21.343Z,47.00
2023-02-12T20:19:12.411Z,55.22
2023-02-12T20:22:06.371Z,52.08
2023-02-12T20:25:02.233Z,54.05
2023-02-12T20:27:51.562Z,59.22
2023-02-12T20:30:43.398Z,57.92
2023-02-12T20:33:31.007Z,59.58
2023-02-12T20:36:18.547Z,59.55
2023-02-12T20:39:09.072Z,64.68
2023-02-12T20:41:57.127Z,66.35
2023-02-12T20:44:46.929Z,65.75
2023-02-12T20:47:34.602Z,68.07
2023-02-12T20:50:25.054Z,72.28
2023-02-12T20:53:12.648Z,64.35
2023-02-12T20:56:05.792Z,70.75
2023-02-12T20:58:53.960Z,76.22
2023-02-12T21:01:42.620Z,78.30
2023-02-12T21:04:31.888Z,83.63
2023-02-12T21:07:20.103Z,79.40
2023-02-12T21:10:08.219Z,79.20
2023-02-12T21:12:55.694Z,80.18
2023-02-12T21:15:48.719Z,81.95
2023-02-12T21:18:38.974Z,75.47
2023-02-12T21:21:31.893Z,82.97
2023-02-12T21:24:23.068Z,78.55
2023-02-12T21:27:12.026Z,84.20
2023-02-12T21:30:04.250Z,93.53
2023-02-12T21:32:54.226Z,93.65
2023-02-12T21:35:47.141Z,99.75
2023-02-12T21:38:38.194Z,102.95
2023-02-12T21:41:28.578Z,92.93
2023-02-12T21:44:20.682Z,107.68
2023-02-12T21:47:10.676Z,124.32
2023-02-12T21:49:58.006Z,134.77
2023-02-12T21:52:45.215Z,118.85
2023-02-12T21:55:41.324Z,122.00
2023-02-12T21:58:29.703Z,123.32
2023-02-12T22:01:23.099Z,132.77
2023-02-12T22:04:13.461Z,110.55
2023-02-12T22:07:07.040Z,116.95
2023-02-12T22:10:01.017Z,121.78
2023-02-12T22:12:50.729Z,116.38
2023-02-12T22:15:38.100Z,112.20
2023-02-12T22:18:25.362Z,104.35
2023-02-12T22:21:14.514Z,115.35
2023-02-12T22:24:06.984Z,106.75
2023-02-12T22:26:57.829Z,106.70
2023-02-12T22:29:45.017Z,100.65
2023-02-12T22:32:34.922Z,97.20
2023-02-12T22:35:25.007Z,98.43
2023-02-12T22:38:12.172Z,101.35
2023-02-12T22:41:02.538Z,109.00
2023-02-12T22:43:49.831Z,112.50
2023-02-12T22:46:37.054Z,118.57
2023-02-12T22:49:51.846Z,110.30
2023-02-12T22:52:39.100Z,109.30
2023-02-12T22:55:26.397Z,121.13
2023-02-12T22:58:13.825Z,110.25
2023-02-12T23:01:15.440Z,125.97
2023-02-12T23:04:05.178Z,121.65
2023-02-12T23:06:52.576Z,123.18
2023-02-12T23:09:42.047Z,123.03
2023-02-12T23:12:29.338Z,128.05
2023-02-12T23:15:16.709Z,124.78
2023-02-12T23:18:04.059Z,136.00
2023-02-12T23:20:55.550Z,123.80
2023-02-12T23:23:42.957Z,134.40
2023-02-12T23:26:32.958Z,136.05
2023-02-12T23:29:23.313Z,144.40
2023-02-12T23:32:10.418Z,137.05
2023-02-12T23:34:57.602Z,152.85
2023-02-12T23:37:44.798Z,142.65
2023-02-12T23:40:32.813Z,159.52
2023-02-12T23:43:20.061Z,145.50
2023-02-12T23:46:09.656Z,135.23
2023-02-12T23:48:59.518Z,130.48
2023-02-12T23:51:49.473Z,145.25
2023-02-12T23:54:36.680Z,145.40
2023-02-12T23:57:24.163Z,154.32
